Weather at Hamilton Hill Airport

Public forecast

Using degrees Fahrenheit for public forecast. Weather courtesy of forecast.io.

Closest aviation weather report (METAR) to Hamilton Hill Airport

Closest report is John Murtha Johnstown Cambria County Airport, 7.9 nm (14.7 km) SSW. Retrieved 2020/11/29 03:54 UTC (19 minutes ago):

KJST 290354Z AUTO 25005KT 10SM CLR 01/M06 A3011 RMK AO2 SLP214 T00061056

Closest aviation forecast (TAF) to Hamilton Hill Airport

Closest forecast is John Murtha Johnstown Cambria County Airport, 7.9 nm (14.7 km) SSW. Retrieved 2020-11-29 00:22 UTC (4 hours ago):

TAF KJST 282320Z 2900/2924 26007KT P6SM SKC